MSC Istanbul — D5LL2 — position and weather

sailwx.info

Track history (hours):
 
Tides and Currents Weather Stations Pressure Air Temp Water Temp Dewpoint Dewpoint Depression Visibility Wind Speed Wind Dir Waves Ship Positions

MSC Istanbul

Last reported at 2017-Dec-10 14:35 UTC. Time now 2017-Dec-12 08:17 UTC.
Position N 41°19' E 002°09'.

Length 399 m; draft 13 m.

Type: Ship (hazmat cat A). MMSI: 636017537.

Date/timePositionNaut miles runAvg speedWind from/ knotsBaromVisibWave heightAir tempDewpointWater temp
2017-Dec-10 14:35N 41°19' E 002°09'0 0.0
2017-Dec-10 14:24N 41°19' E 002°09'0 0.0
2017-Dec-10 14:00N 41°19' E 002°09'0 0.0
2017-Dec-10 11:58N 41°19' E 002°09'1 1.2
2017-Dec-10 11:06N 41°19' E 002°10'1 4.6
2017-Dec-10 10:59N 41°19' E 002°10'4 7.2
2017-Dec-10 10:28N 41°15' E 002°12'510.2
2017-Dec-10 10:00N 41°13' E 002°18'32816.0
2017-Dec-09 13:28N 38°38' E 008°35'17218.8
2017-Dec-09 04:19N 38°28' E 012°14'618.3
2017-Dec-09 03:59N 38°27' E 012°21'918.0
2017-Dec-09 03:30N 38°27' E 012°33'917.9
2017-Dec-09 03:00N 38°26' E 012°44'918.3
2017-Dec-09 02:30N 38°25' E 012°55'918.6
2017-Dec-09 02:00N 38°25' E 013°07'918.8
2017-Dec-09 01:30N 38°24' E 013°19'918.8
2017-Dec-09 01:00N 38°23' E 013°31'919.0
2017-Dec-09 00:30N 38°23' E 013°43'1019.2
2017-Dec-09 00:00N 38°22' E 013°56'918.8
2017-Dec-08 23:30N 38°22' E 014°08'918.6
2017-Dec-08 23:00N 38°21' E 014°19'918.8
2017-Dec-08 22:30N 38°20' E 014°31'1019.1
2017-Dec-08 22:00N 38°20' E 014°43'1019.7
2017-Dec-08 21:30N 38°19' E 014°56'1019.7
2017-Dec-08 21:00N 38°21' E 015°08'1019.8
2017-Dec-08 20:30N 38°22' E 015°21'1019.8
2017-Dec-08 20:00N 38°24' E 015°33'1019.7
2017-Dec-08 19:30N 38°26' E 015°46'612.3
2017-Dec-08 19:00N 38°27' E 015°53'1 1.3
2017-Dec-08 18:25N 38°27' E 015°54'0 0.0
2017-Dec-08 17:55N 38°27' E 015°54'0 0.0
2017-Dec-08 17:25N 38°27' E 015°54'0 0.0
2017-Dec-08 08:07N 38°27' E 015°54'0 0.0
2017-Dec-08 07:55N 38°27' E 015°54'0 0.0
2017-Dec-08 07:25N 38°27' E 015°54'0 0.0
2017-Dec-08 06:01N 38°27' E 015°54'0 0.0
2017-Dec-08 05:55N 38°27' E 015°54'0 0.7
2017-Dec-08 05:30N 38°27' E 015°54'3 2.8
2017-Dec-08 04:29N 38°27' E 015°51'4 8.9
2017-Dec-08 04:01N 38°28' E 015°45'510.0
2017-Dec-08 03:31N 38°30' E 015°39'1 2.2
2017-Dec-08 03:01N 38°29' E 015°38'0 0.5
2017-Dec-08 02:31N 38°30' E 015°38'0 0.4
2017-Dec-08 02:00N 38°30' E 015°38'0 0.4
2017-Dec-08 01:29N 38°30' E 015°38'0 0.3
2017-Dec-08 01:00N 38°30' E 015°38'0 0.2
2017-Dec-08 00:30N 38°30' E 015°37'1 1.1
2017-Dec-07 23:48N 38°30' E 015°37'1 3.2
2017-Dec-07 23:31N 38°29' E 015°37'4 8.5
2017-Dec-07 23:01N 38°26' E 015°40'714.2
2017-Dec-07 22:30N 38°19' E 015°44'612.3
2017-Dec-07 22:00N 38°15' E 015°39'613.3
2017-Dec-07 21:30N 38°09' E 015°37'713.8
2017-Dec-07 21:00N 38°02' E 015°36'1015.6
2017-Dec-07 20:22N 37°52' E 015°34'718.6
2017-Dec-07 20:00N 37°45' E 015°33'1818.9
2017-Dec-07 19:04N 37°27' E 015°30'319.1
2017-Dec-07 18:54N 37°24' E 015°30'818.6
2017-Dec-07 18:28N 37°16' E 015°29'4318.8
2017-Dec-07 16:11N 36°35' E 015°14'519.2
2017-Dec-07 15:55N 36°31' E 015°11'1219.2
2017-Dec-07 15:18N 36°21' E 015°02'818.5
2017-Dec-07 14:52N 36°15' E 014°56'919.2
2017-Dec-07 14:23N 36°07' E 014°50'717.9
2017-Dec-07 14:00N 36°01' E 014°45'1019.5
2017-Dec-07 13:30N 35°54' E 014°38'6 9.6
2017-Dec-07 12:53N 35°49' E 014°33'  
2017-Dec-04 06:50N 30°12' E 032°34'  
Track history (hours):
 
Tides and Currents Weather Stations Pressure Air Temp Water Temp Dewpoint Dewpoint Depression Visibility Wind Speed Wind Dir Waves Ship Positions

MSC Istanbul

Last reported at 2017-Dec-10 14:35 UTC. Time now 2017-Dec-12 08:17 UTC.
Position N 41°19' E 002°09'.

Length 399 m; draft 13 m.

Type: Ship (hazmat cat A). MMSI: 636017537.

Date/timePositionNaut miles runAvg speedWind from/ knotsBaromVisibWave heightAir tempDewpointWater temp
2017-Dec-10 14:35N 41°19' E 002°09'0 0.0
2017-Dec-10 14:24N 41°19' E 002°09'0 0.0
2017-Dec-10 14:00N 41°19' E 002°09'0 0.0
2017-Dec-10 11:58N 41°19' E 002°09'1 1.2
2017-Dec-10 11:06N 41°19' E 002°10'1 4.6
2017-Dec-10 10:59N 41°19' E 002°10'4 7.2
2017-Dec-10 10:28N 41°15' E 002°12'510.2
2017-Dec-10 10:00N 41°13' E 002°18'32816.0
2017-Dec-09 13:28N 38°38' E 008°35'17218.8
2017-Dec-09 04:19N 38°28' E 012°14'618.3
2017-Dec-09 03:59N 38°27' E 012°21'918.0
2017-Dec-09 03:30N 38°27' E 012°33'917.9
2017-Dec-09 03:00N 38°26' E 012°44'918.3
2017-Dec-09 02:30N 38°25' E 012°55'918.6
2017-Dec-09 02:00N 38°25' E 013°07'918.8
2017-Dec-09 01:30N 38°24' E 013°19'918.8
2017-Dec-09 01:00N 38°23' E 013°31'919.0
2017-Dec-09 00:30N 38°23' E 013°43'1019.2
2017-Dec-09 00:00N 38°22' E 013°56'918.8
2017-Dec-08 23:30N 38°22' E 014°08'918.6
2017-Dec-08 23:00N 38°21' E 014°19'918.8
2017-Dec-08 22:30N 38°20' E 014°31'1019.1
2017-Dec-08 22:00N 38°20' E 014°43'1019.7
2017-Dec-08 21:30N 38°19' E 014°56'1019.7
2017-Dec-08 21:00N 38°21' E 015°08'1019.8
2017-Dec-08 20:30N 38°22' E 015°21'1019.8
2017-Dec-08 20:00N 38°24' E 015°33'1019.7
2017-Dec-08 19:30N 38°26' E 015°46'612.3
2017-Dec-08 19:00N 38°27' E 015°53'1 1.3
2017-Dec-08 18:25N 38°27' E 015°54'0 0.0
2017-Dec-08 17:55N 38°27' E 015°54'0 0.0
2017-Dec-08 17:25N 38°27' E 015°54'0 0.0
2017-Dec-08 08:07N 38°27' E 015°54'0 0.0
2017-Dec-08 07:55N 38°27' E 015°54'0 0.0
2017-Dec-08 07:25N 38°27' E 015°54'0 0.0
2017-Dec-08 06:01N 38°27' E 015°54'0 0.0
2017-Dec-08 05:55N 38°27' E 015°54'0 0.7
2017-Dec-08 05:30N 38°27' E 015°54'3 2.8
2017-Dec-08 04:29N 38°27' E 015°51'4 8.9
2017-Dec-08 04:01N 38°28' E 015°45'510.0
2017-Dec-08 03:31N 38°30' E 015°39'1 2.2
2017-Dec-08 03:01N 38°29' E 015°38'0 0.5
2017-Dec-08 02:31N 38°30' E 015°38'0 0.4
2017-Dec-08 02:00N 38°30' E 015°38'0 0.4
2017-Dec-08 01:29N 38°30' E 015°38'0 0.3
2017-Dec-08 01:00N 38°30' E 015°38'0 0.2
2017-Dec-08 00:30N 38°30' E 015°37'1 1.1
2017-Dec-07 23:48N 38°30' E 015°37'1 3.2
2017-Dec-07 23:31N 38°29' E 015°37'4 8.5
2017-Dec-07 23:01N 38°26' E 015°40'714.2
2017-Dec-07 22:30N 38°19' E 015°44'612.3
2017-Dec-07 22:00N 38°15' E 015°39'613.3
2017-Dec-07 21:30N 38°09' E 015°37'713.8
2017-Dec-07 21:00N 38°02' E 015°36'1015.6
2017-Dec-07 20:22N 37°52' E 015°34'718.6
2017-Dec-07 20:00N 37°45' E 015°33'1818.9
2017-Dec-07 19:04N 37°27' E 015°30'319.1
2017-Dec-07 18:54N 37°24' E 015°30'818.6
2017-Dec-07 18:28N 37°16' E 015°29'4318.8
2017-Dec-07 16:11N 36°35' E 015°14'519.2
2017-Dec-07 15:55N 36°31' E 015°11'1219.2
2017-Dec-07 15:18N 36°21' E 015°02'818.5
2017-Dec-07 14:52N 36°15' E 014°56'919.2
2017-Dec-07 14:23N 36°07' E 014°50'717.9
2017-Dec-07 14:00N 36°01' E 014°45'1019.5
2017-Dec-07 13:30N 35°54' E 014°38'6 9.6
2017-Dec-07 12:53N 35°49' E 014°33'  
2017-Dec-04 06:50N 30°12' E 032°34'  

Dump ship's entire track history